createdAt,value
2017-04-02T00:00:10.869Z,1002.39
2017-04-02T00:00:51.326Z,1002.41
2017-04-02T00:01:31.874Z,1002.41
2017-04-02T00:02:12.388Z,1002.4
2017-04-02T00:02:53.035Z,1002.38
2017-04-02T00:03:33.547Z,1002.44
2017-04-02T00:04:14.027Z,1002.41
2017-04-02T00:04:54.499Z,1002.43
2017-04-02T00:05:35.051Z,1002.41
2017-04-02T00:06:15.483Z,1002.43
2017-04-02T00:06:55.952Z,1002.4
2017-04-02T00:07:36.479Z,1002.43
2017-04-02T00:08:16.951Z,1002.42
2017-04-02T00:08:57.440Z,1002.42
2017-04-02T00:09:37.895Z,1002.38
2017-04-02T00:10:18.382Z,1002.39
2017-04-02T00:10:58.845Z,1002.39
2017-04-02T00:11:39.350Z,1002.38
2017-04-02T00:12:19.818Z,1002.33
2017-04-02T00:13:00.334Z,1002.33
2017-04-02T00:13:40.829Z,1002.33
2017-04-02T00:14:21.361Z,1002.33
2017-04-02T00:15:01.836Z,1002.31
2017-04-02T00:15:42.348Z,1002.28
2017-04-02T00:16:22.834Z,1002.28
2017-04-02T00:17:03.316Z,1002.32
2017-04-02T00:17:43.797Z,1002.29
2017-04-02T00:18:24.300Z,1002.35
2017-04-02T00:19:04.767Z,1002.33
2017-04-02T00:19:45.264Z,1002.33
2017-04-02T00:20:25.808Z,1002.33
2017-04-02T00:21:06.266Z,1002.36
2017-04-02T00:21:46.765Z,1002.37
2017-04-02T00:22:27.284Z,1002.42
2017-04-02T00:23:07.728Z,1002.39
2017-04-02T00:23:48.252Z,1002.35
2017-04-02T00:24:28.748Z,1002.39
2017-04-02T00:25:09.275Z,1002.38
2017-04-02T00:25:49.769Z,1002.39
2017-04-02T00:26:30.285Z,1002.42
2017-04-02T00:27:10.776Z,1002.38
2017-04-02T00:27:51.273Z,1002.39
2017-04-02T00:28:31.743Z,1002.36
2017-04-02T00:29:12.245Z,1002.36
2017-04-02T00:29:52.740Z,1002.36
2017-04-02T00:30:33.262Z,1002.4
2017-04-02T00:31:13.738Z,1002.41
2017-04-02T00:31:54.221Z,1002.4
2017-04-02T00:32:34.733Z,1002.36
2017-04-02T00:33:15.213Z,1002.35
2017-04-02T00:33:55.719Z,1002.4
2017-04-02T00:34:36.182Z,1002.39
2017-04-02T00:35:16.668Z,1002.34
2017-04-02T00:35:57.187Z,1002.39
2017-04-02T00:36:37.658Z,1002.41
2017-04-02T00:37:18.183Z,1002.4
2017-04-02T00:37:58.676Z,1002.37
2017-04-02T00:38:39.201Z,1002.4
2017-04-02T00:39:19.680Z,1002.43
2017-04-02T00:40:00.175Z,1002.37
2017-04-02T00:40:40.716Z,1002.43
2017-04-02T00:41:21.163Z,1002.44
2017-04-02T00:42:01.663Z,1002.45
2017-04-02T00:42:42.193Z,1002.43
2017-04-02T00:43:22.679Z,1002.46
2017-04-02T00:44:03.187Z,1002.43
2017-04-02T00:44:43.660Z,1002.44
2017-04-02T00:45:24.259Z,1002.45
2017-04-02T00:46:04.659Z,1002.48
2017-04-02T00:46:45.160Z,1002.48
2017-04-02T00:47:25.630Z,1002.5
2017-04-02T00:48:06.129Z,1002.46
2017-04-02T00:48:46.629Z,1002.51
2017-04-02T00:49:27.139Z,1002.55
2017-04-02T00:50:07.642Z,1002.51
2017-04-02T00:50:48.107Z,1002.56
2017-04-02T00:51:28.624Z,1002.54
2017-04-02T00:52:09.125Z,1002.57
2017-04-02T00:52:49.635Z,1002.55
2017-04-02T00:53:30.131Z,1002.56
2017-04-02T00:54:10.640Z,1002.59
2017-04-02T00:54:51.130Z,1002.54
2017-04-02T00:55:31.605Z,1002.53
2017-04-02T00:56:12.197Z,1002.56
2017-04-02T00:56:52.730Z,1002.5
2017-04-02T00:57:33.320Z,1002.6
2017-04-02T00:58:13.747Z,1002.54
2017-04-02T00:58:54.251Z,1002.53
2017-04-02T00:59:34.766Z,1002.55
2017-04-02T01:00:15.240Z,1002.51
2017-04-02T01:00:55.815Z,1002.52
2017-04-02T01:01:36.302Z,1002.55
2017-04-02T01:02:16.787Z,1002.54
2017-04-02T01:02:57.277Z,1002.54
2017-04-02T01:03:37.769Z,1002.51
2017-04-02T01:04:18.219Z,1002.54
2017-04-02T01:04:58.712Z,1002.52
2017-04-02T01:05:39.257Z,1002.51
2017-04-02T01:06:19.757Z,1002.59
2017-04-02T01:07:00.213Z,1002.52
2017-04-02T01:07:40.707Z,1002.49
2017-04-02T01:08:21.171Z,1002.49
2017-04-02T01:09:01.675Z,1002.49
2017-04-02T01:09:42.173Z,1002.5
2017-04-02T01:10:22.688Z,1002.48
2017-04-02T01:11:03.173Z,1002.47
2017-04-02T01:11:43.627Z,1002.45
2017-04-02T01:12:24.140Z,1002.49
2017-04-02T01:13:04.653Z,1002.46
2017-04-02T01:13:45.120Z,1002.4
2017-04-02T01:14:25.617Z,1002.45
2017-04-02T01:15:06.110Z,1002.4
2017-04-02T01:15:46.628Z,1002.43
2017-04-02T01:16:27.142Z,1002.43
2017-04-02T01:17:07.629Z,1002.35
2017-04-02T01:17:48.137Z,1002.43
2017-04-02T01:18:28.623Z,1002.41
2017-04-02T01:19:09.128Z,1002.49
2017-04-02T01:19:49.592Z,1002.44
2017-04-02T01:20:30.103Z,1002.51
2017-04-02T01:21:10.584Z,1002.46
2017-04-02T01:21:51.107Z,1002.51
2017-04-02T01:22:31.574Z,1002.47
2017-04-02T01:23:12.046Z,1002.48
2017-04-02T01:23:52.551Z,1002.44
2017-04-02T01:24:33.075Z,1002.44
2017-04-02T01:25:13.566Z,1002.49
2017-04-02T01:25:54.059Z,1002.51
2017-04-02T01:26:34.554Z,1002.42
2017-04-02T01:27:15.072Z,1002.43
2017-04-02T01:27:55.550Z,1002.45
2017-04-02T01:28:36.045Z,1002.45
2017-04-02T01:29:16.530Z,1002.44
2017-04-02T01:29:57.036Z,1002.46
2017-04-02T01:30:37.531Z,1002.42
2017-04-02T01:31:18.065Z,1002.44
2017-04-02T01:31:58.529Z,1002.47
2017-04-02T01:32:39.060Z,1002.43
2017-04-02T01:33:19.536Z,1002.45
2017-04-02T01:34:00.017Z,1002.49
2017-04-02T01:34:40.555Z,1002.45
2017-04-02T01:35:21.013Z,1002.46
2017-04-02T01:36:01.536Z,1002.45
2017-04-02T01:36:42.030Z,1002.47
2017-04-02T01:37:22.490Z,1002.49
2017-04-02T01:38:02.996Z,1002.45
2017-04-02T01:38:43.479Z,1002.48
2017-04-02T01:39:23.959Z,1002.46
2017-04-02T01:40:04.434Z,1002.49
2017-04-02T01:40:44.947Z,1002.48
2017-04-02T01:41:25.427Z,1002.51
2017-04-02T01:42:06.063Z,1002.53
2017-04-02T01:42:46.397Z,1002.56
2017-04-02T01:43:26.874Z,1002.54
2017-04-02T01:44:07.356Z,1002.54
2017-04-02T01:44:47.891Z,1002.56
2017-04-02T01:45:28.385Z,1002.55
2017-04-02T01:46:08.859Z,1002.58
2017-04-02T01:46:49.333Z,1002.59
2017-04-02T01:47:29.832Z,1002.57
2017-04-02T01:48:10.330Z,1002.59
2017-04-02T01:48:50.807Z,1002.55
2017-04-02T01:49:31.321Z,1002.57
2017-04-02T01:50:11.800Z,1002.55
2017-04-02T01:50:52.297Z,1002.57
2017-04-02T01:51:32.788Z,1002.55
2017-04-02T01:52:13.367Z,1002.54
2017-04-02T01:52:53.816Z,1002.57
2017-04-02T01:53:34.293Z,1002.56
2017-04-02T01:54:14.775Z,1002.56
2017-04-02T01:54:55.264Z,1002.56
2017-04-02T01:55:35.747Z,1002.54
2017-04-02T01:56:16.229Z,1002.48
2017-04-02T01:56:56.721Z,1002.48
2017-04-02T01:57:37.200Z,1002.51
2017-04-02T01:58:17.704Z,1002.54
2017-04-02T01:58:58.183Z,1002.51
2017-04-02T01:59:38.697Z,1002.52
2017-04-02T02:00:19.171Z,1002.54
2017-04-02T02:00:59.689Z,1002.57
2017-04-02T02:01:40.149Z,1002.55
2017-04-02T02:02:20.701Z,1002.57
2017-04-02T02:03:01.360Z,1002.56
2017-04-02T02:03:41.886Z,1002.59
2017-04-02T02:04:22.386Z,1002.58
2017-04-02T02:05:02.895Z,1002.56
2017-04-02T02:05:43.385Z,1002.53
2017-04-02T02:06:23.879Z,1002.5
2017-04-02T02:07:04.341Z,1002.51
2017-04-02T02:07:44.849Z,1002.53
2017-04-02T02:08:25.333Z,1002.53
2017-04-02T02:09:05.854Z,1002.56
2017-04-02T02:09:46.329Z,1002.53
2017-04-02T02:10:26.846Z,1002.58
2017-04-02T02:11:07.344Z,1002.55
2017-04-02T02:11:47.876Z,1002.59
2017-04-02T02:12:28.320Z,1002.58
2017-04-02T02:13:08.815Z,1002.64
2017-04-02T02:13:49.290Z,1002.55
2017-04-02T02:14:29.838Z,1002.59
2017-04-02T02:15:10.312Z,1002.65
2017-04-02T02:15:50.780Z,1002.61
2017-04-02T02:16:31.302Z,1002.6
2017-04-02T02:17:11.779Z,1002.64
2017-04-02T02:17:52.259Z,1002.59
2017-04-02T02:18:32.738Z,1002.63
2017-04-02T02:19:13.281Z,1002.62
2017-04-02T02:19:53.765Z,1002.59
2017-04-02T02:20:34.256Z,1002.53
2017-04-02T02:21:14.746Z,1002.58
2017-04-02T02:21:55.246Z,1002.53
2017-04-02T02:22:35.741Z,1002.59
2017-04-02T02:23:16.228Z,1002.53
2017-04-02T02:23:56.774Z,1002.53
2017-04-02T02:24:37.241Z,1002.54
2017-04-02T02:25:17.723Z,1002.56
2017-04-02T02:25:58.209Z,1002.56
2017-04-02T02:26:38.764Z,1002.54
2017-04-02T02:27:19.220Z,1002.52
2017-04-02T02:27:59.725Z,1002.61
2017-04-02T02:28:40.268Z,1002.6
2017-04-02T02:29:20.710Z,1002.6
2017-04-02T02:30:01.197Z,1002.64
2017-04-02T02:30:41.692Z,1002.64
2017-04-02T02:31:22.179Z,1002.64
2017-04-02T02:32:02.684Z,1002.65
2017-04-02T02:32:43.187Z,1002.64
2017-04-02T02:33:23.682Z,1002.66
2017-04-02T02:34:04.188Z,1002.64
2017-04-02T02:34:44.706Z,1002.67
2017-04-02T02:35:25.181Z,1002.69
2017-04-02T02:36:05.668Z,1002.7
2017-04-02T02:36:46.174Z,1002.67
2017-04-02T02:37:26.661Z,1002.69
2017-04-02T02:38:07.193Z,1002.69
2017-04-02T02:38:47.645Z,1002.67
2017-04-02T02:39:28.158Z,1002.72
2017-04-02T02:40:08.614Z,1002.69
2017-04-02T02:40:49.122Z,1002.69
2017-04-02T02:41:29.627Z,1002.71
2017-04-02T02:42:10.111Z,1002.71
2017-04-02T02:42:50.628Z,1002.74
2017-04-02T02:43:31.169Z,1002.81
2017-04-02T02:44:11.582Z,1002.78
2017-04-02T02:44:52.069Z,1002.79
2017-04-02T02:45:33.153Z,1002.8
2017-04-02T02:46:13.688Z,1002.81
2017-04-02T02:46:54.185Z,1002.8
2017-04-02T02:47:34.680Z,1002.82
2017-04-02T02:48:15.131Z,1002.82
2017-04-02T02:48:55.629Z,1002.85
2017-04-02T02:49:36.128Z,1002.81
2017-04-02T02:50:16.652Z,1002.84
2017-04-02T02:50:57.111Z,1002.85
2017-04-02T02:51:37.579Z,1002.84
2017-04-02T02:52:18.076Z,1002.88
2017-04-02T02:52:58.582Z,1002.85
2017-04-02T02:53:39.096Z,1002.88
2017-04-02T02:54:19.609Z,1002.92
2017-04-02T02:55:00.098Z,1002.95
2017-04-02T02:55:40.586Z,1002.92
2017-04-02T02:56:21.061Z,1002.92
2017-04-02T02:57:01.575Z,1002.95
2017-04-02T02:57:42.049Z,1002.98
2017-04-02T02:58:22.549Z,1003.01
2017-04-02T02:59:03.044Z,1002.97
2017-04-02T02:59:43.533Z,1002.96
2017-04-02T03:00:24.057Z,1002.96
2017-04-02T03:01:04.572Z,1002.98
2017-04-02T03:01:45.027Z,1002.96
2017-04-02T03:02:25.506Z,1002.91
2017-04-02T03:03:06.038Z,1002.92
2017-04-02T03:03:46.507Z,1002.9
2017-04-02T03:04:27.014Z,1002.88
2017-04-02T03:05:07.514Z,1002.88
2017-04-02T03:05:48.024Z,1002.93
2017-04-02T03:06:28.501Z,1002.86
2017-04-02T03:07:08.980Z,1002.86
2017-04-02T03:07:49.477Z,1002.91
2017-04-02T03:08:29.969Z,1002.88
2017-04-02T03:09:10.454Z,1002.91
2017-04-02T03:09:50.975Z,1002.88
2017-04-02T03:10:31.476Z,1002.89
2017-04-02T03:11:11.953Z,1002.87
2017-04-02T03:11:52.439Z,1002.84
2017-04-02T03:12:32.973Z,1002.84
2017-04-02T03:13:13.465Z,1002.87
2017-04-02T03:13:53.931Z,1002.83
2017-04-02T03:14:34.411Z,1002.84
2017-04-02T03:15:14.930Z,1002.85
2017-04-02T03:15:55.413Z,1002.89
2017-04-02T03:16:35.926Z,1002.86
2017-04-02T03:17:16.380Z,1002.87
2017-04-02T03:17:56.874Z,1002.9
2017-04-02T03:18:37.364Z,1002.9
2017-04-02T03:19:17.857Z,1002.92
2017-04-02T03:19:58.390Z,1002.92
2017-04-02T03:20:38.873Z,1002.89
2017-04-02T03:21:19.364Z,1002.9
2017-04-02T03:21:59.850Z,1002.9
2017-04-02T03:22:40.444Z,1002.93
2017-04-02T03:23:20.946Z,1002.88
2017-04-02T03:24:01.450Z,1002.89
2017-04-02T03:24:42.014Z,1002.89
2017-04-02T03:25:22.491Z,1002.91
2017-04-02T03:26:02.958Z,1002.91
2017-04-02T03:26:43.472Z,1002.9
2017-04-02T03:27:23.949Z,1002.9
2017-04-02T03:28:04.459Z,1002.93
2017-04-02T03:28:44.914Z,1002.95
2017-04-02T03:29:25.412Z,1002.97
2017-04-02T03:30:05.874Z,1002.92
2017-04-02T03:30:46.374Z,1002.96
2017-04-02T03:31:26.893Z,1002.92
2017-04-02T03:32:07.386Z,1002.92
2017-04-02T03:32:47.861Z,1002.95
2017-04-02T03:33:28.351Z,1002.92
2017-04-02T03:34:08.831Z,1002.9
2017-04-02T03:34:49.319Z,1002.93
2017-04-02T03:35:29.835Z,1002.93
2017-04-02T03:36:10.357Z,1002.94
2017-04-02T03:36:50.865Z,1002.94
2017-04-02T03:37:31.315Z,1002.97
2017-04-02T03:38:11.808Z,1002.97
2017-04-02T03:38:52.266Z,1002.95
2017-04-02T03:39:32.756Z,1002.96
2017-04-02T03:40:13.253Z,1003.01
2017-04-02T03:40:53.751Z,1002.98
2017-04-02T03:41:34.265Z,1002.99
2017-04-02T03:42:14.733Z,1003.03
2017-04-02T03:42:55.237Z,1003.02
2017-04-02T03:43:35.725Z,1003.01
2017-04-02T03:44:16.189Z,1003.02
2017-04-02T03:44:56.713Z,1003
2017-04-02T03:45:37.202Z,1003.04
2017-04-02T03:46:17.685Z,1003.04
2017-04-02T03:46:58.185Z,1003
2017-04-02T03:47:38.686Z,1003.03
2017-04-02T03:48:19.182Z,1003.05
2017-04-02T03:48:59.703Z,1003.04
2017-04-02T03:49:40.164Z,1003.06
2017-04-02T03:50:20.676Z,1003.06
2017-04-02T03:51:01.176Z,1003.12
2017-04-02T03:51:41.689Z,1003.09
2017-04-02T03:52:22.230Z,1003.14
2017-04-02T03:53:02.706Z,1003.09
2017-04-02T03:53:43.186Z,1003.12
2017-04-02T03:54:23.684Z,1003.16
2017-04-02T03:55:04.186Z,1003.13
2017-04-02T03:55:44.688Z,1003.17
2017-04-02T03:56:25.181Z,1003.2
2017-04-02T03:57:05.673Z,1003.16
2017-04-02T03:57:46.183Z,1003.14
2017-04-02T03:58:26.724Z,1003.14
2017-04-02T03:59:07.161Z,1003.2
2017-04-02T03:59:47.693Z,1003.22
2017-04-02T04:00:28.132Z,1003.25
2017-04-02T04:01:08.694Z,1003.23
2017-04-02T04:01:49.160Z,1003.24
2017-04-02T04:02:29.648Z,1003.26
2017-04-02T04:03:10.129Z,1003.28
2017-04-02T04:03:50.606Z,1003.29
2017-04-02T04:04:31.136Z,1003.29
2017-04-02T04:05:11.603Z,1003.32
2017-04-02T04:05:52.120Z,1003.29
2017-04-02T04:06:32.630Z,1003.33
2017-04-02T04:07:13.084Z,1003.35
2017-04-02T04:07:53.583Z,1003.31
2017-04-02T04:08:34.124Z,1003.34
2017-04-02T04:09:14.557Z,1003.35
2017-04-02T04:09:55.061Z,1003.34
2017-04-02T04:10:35.566Z,1003.33
2017-04-02T04:11:16.044Z,1003.35
2017-04-02T04:11:56.569Z,1003.29
2017-04-02T04:12:37.018Z,1003.33
2017-04-02T04:13:17.516Z,1003.35
2017-04-02T04:13:58.049Z,1003.34
2017-04-02T04:14:38.508Z,1003.33
2017-04-02T04:15:18.994Z,1003.34
2017-04-02T04:15:59.568Z,1003.34
2017-04-02T04:16:40.057Z,1003.36
2017-04-02T04:17:20.560Z,1003.38
2017-04-02T04:18:01.012Z,1003.39
2017-04-02T04:18:41.508Z,1003.4
2017-04-02T04:19:22.010Z,1003.45
2017-04-02T04:20:02.520Z,1003.49
2017-04-02T04:20:43.010Z,1003.5
2017-04-02T04:21:23.482Z,1003.49
2017-04-02T04:22:04.005Z,1003.51
2017-04-02T04:22:44.475Z,1003.46
2017-04-02T04:23:24.973Z,1003.48
2017-04-02T04:24:05.459Z,1003.49
2017-04-02T04:24:45.922Z,1003.52
2017-04-02T04:25:26.414Z,1003.47
2017-04-02T04:26:06.943Z,1003.51
2017-04-02T04:26:47.463Z,1003.54
2017-04-02T04:27:27.909Z,1003.56
2017-04-02T04:28:08.429Z,1003.47
2017-04-02T04:28:48.933Z,1003.46
2017-04-02T04:29:29.403Z,1003.51
2017-04-02T04:30:09.937Z,1003.5
2017-04-02T04:30:50.415Z,1003.49
2017-04-02T04:31:30.905Z,1003.49
2017-04-02T04:32:11.388Z,1003.53
2017-04-02T04:32:51.903Z,1003.57
2017-04-02T04:33:32.378Z,1003.64
2017-04-02T04:34:12.851Z,1003.61
2017-04-02T04:34:53.331Z,1003.65
2017-04-02T04:35:33.885Z,1003.64
2017-04-02T04:36:14.415Z,1003.64
2017-04-02T04:36:54.865Z,1003.6
2017-04-02T04:37:35.389Z,1003.62
2017-04-02T04:38:15.919Z,1003.63
2017-04-02T04:38:56.368Z,1003.64
2017-04-02T04:39:36.887Z,1003.61
2017-04-02T04:40:17.456Z,1003.63
2017-04-02T04:40:57.887Z,1003.63
2017-04-02T04:41:38.376Z,1003.64
2017-04-02T04:42:18.858Z,1003.65
2017-04-02T04:42:59.361Z,1003.67
2017-04-02T04:43:39.884Z,1003.66
2017-04-02T04:44:20.331Z,1003.65
2017-04-02T04:45:00.842Z,1003.63
2017-04-02T04:45:41.331Z,1003.7
2017-04-02T04:46:21.834Z,1003.72
2017-04-02T04:47:02.358Z,1003.71
2017-04-02T04:47:42.816Z,1003.73
2017-04-02T04:48:23.319Z,1003.75
2017-04-02T04:49:03.816Z,1003.75
2017-04-02T04:49:44.315Z,1003.76
2017-04-02T04:50:24.829Z,1003.77
2017-04-02T04:51:05.322Z,1003.77
2017-04-02T04:51:45.857Z,1003.76
2017-04-02T04:52:26.340Z,1003.75
2017-04-02T04:53:06.872Z,1003.78
2017-04-02T04:53:47.347Z,1003.81
2017-04-02T04:54:27.878Z,1003.79
2017-04-02T04:55:08.344Z,1003.83
2017-04-02T04:55:48.863Z,1003.78
2017-04-02T04:56:29.302Z,1003.8
2017-04-02T04:57:09.816Z,1003.82
2017-04-02T04:57:50.311Z,1003.83
2017-04-02T04:58:30.794Z,1003.84
2017-04-02T04:59:11.294Z,1003.81
2017-04-02T04:59:51.782Z,1003.82
2017-04-02T05:00:32.275Z,1003.86
2017-04-02T05:01:12.766Z,1003.86
2017-04-02T05:01:53.304Z,1003.87
2017-04-02T05:02:33.771Z,1003.85
2017-04-02T05:03:14.251Z,1003.86
2017-04-02T05:03:54.749Z,1003.89
2017-04-02T05:04:35.241Z,1003.87
2017-04-02T05:05:15.755Z,1003.89
2017-04-02T05:05:56.293Z,1003.92
2017-04-02T05:06:36.763Z,1003.88
2017-04-02T05:07:17.260Z,1003.91
2017-04-02T05:07:57.784Z,1003.96
2017-04-02T05:08:38.260Z,1003.95
2017-04-02T05:09:18.763Z,1004
2017-04-02T05:09:59.259Z,1003.98
2017-04-02T05:10:39.750Z,1004.03
2017-04-02T05:11:20.203Z,1004.01
2017-04-02T05:12:00.701Z,1004.06
2017-04-02T05:12:41.214Z,1004.1
2017-04-02T05:13:21.719Z,1004.07
2017-04-02T05:14:02.187Z,1004.11
2017-04-02T05:14:42.691Z,1004.12
2017-04-02T05:15:23.215Z,1004.14
2017-04-02T05:16:03.703Z,1004.13
2017-04-02T05:16:44.234Z,1004.12
2017-04-02T05:17:24.699Z,1004.16
2017-04-02T05:18:05.196Z,1004.19
2017-04-02T05:18:45.677Z,1004.18
2017-04-02T05:19:26.197Z,1004.17
2017-04-02T05:20:06.678Z,1004.22
2017-04-02T05:20:47.169Z,1004.21
2017-04-02T05:21:27.663Z,1004.21
2017-04-02T05:22:08.174Z,1004.22
2017-04-02T05:22:48.651Z,1004.28
2017-04-02T05:23:29.153Z,1004.3
2017-04-02T05:24:09.675Z,1004.32
2017-04-02T05:24:50.169Z,1004.31
2017-04-02T05:25:30.643Z,1004.34
2017-04-02T05:26:11.105Z,1004.33
2017-04-02T05:26:51.663Z,1004.37
2017-04-02T05:27:32.167Z,1004.35
2017-04-02T05:28:12.631Z,1004.34
2017-04-02T05:28:53.140Z,1004.4
2017-04-02T05:29:33.630Z,1004.37
2017-04-02T05:30:14.122Z,1004.34
2017-04-02T05:30:54.610Z,1004.38
2017-04-02T05:31:35.114Z,1004.38
2017-04-02T05:32:15.610Z,1004.38
2017-04-02T05:32:56.103Z,1004.38
2017-04-02T05:33:36.603Z,1004.41
2017-04-02T05:34:17.104Z,1004.42
2017-04-02T05:34:57.623Z,1004.4
2017-04-02T05:35:38.096Z,1004.44
2017-04-02T05:36:18.599Z,1004.43
2017-04-02T05:36:59.050Z,1004.43
2017-04-02T05:37:39.578Z,1004.45
2017-04-02T05:38:20.033Z,1004.46
2017-04-02T05:39:00.570Z,1004.44
2017-04-02T05:39:41.035Z,1004.46
2017-04-02T05:40:21.550Z,1004.49
2017-04-02T05:41:02.004Z,1004.48
2017-04-02T05:41:42.465Z,1004.48
2017-04-02T05:42:22.991Z,1004.53
2017-04-02T05:43:03.507Z,1004.49
2017-04-02T05:43:43.999Z,1004.56
2017-04-02T05:44:24.501Z,1004.53
2017-04-02T05:45:04.991Z,1004.54
2017-04-02T05:45:45.493Z,1004.57
2017-04-02T05:46:25.981Z,1004.53
2017-04-02T05:47:06.510Z,1004.57
2017-04-02T05:47:47.032Z,1004.58
2017-04-02T05:48:27.540Z,1004.62
2017-04-02T05:49:08.058Z,1004.61
2017-04-02T05:49:48.570Z,1004.61
2017-04-02T05:50:29.017Z,1004.6
2017-04-02T05:51:09.515Z,1004.67
2017-04-02T05:51:50.021Z,1004.66
2017-04-02T05:52:30.714Z,1004.68
2017-04-02T05:53:11.087Z,1004.69
2017-04-02T05:53:51.593Z,1004.72
2017-04-02T05:54:32.153Z,1004.74
2017-04-02T05:55:12.695Z,1004.76
2017-04-02T05:55:53.091Z,1004.73
2017-04-02T05:56:33.610Z,1004.78
2017-04-02T05:57:14.157Z,1004.74
2017-04-02T05:57:54.639Z,1004.75
2017-04-02T05:58:35.155Z,1004.77
2017-04-02T05:59:15.622Z,1004.77
2017-04-02T05:59:56.242Z,1004.78
2017-04-02T06:00:36.743Z,1004.81
2017-04-02T06:01:17.234Z,1004.82
2017-04-02T06:01:57.715Z,1004.83
2017-04-02T06:02:38.283Z,1004.85
2017-04-02T06:03:18.756Z,1004.89
2017-04-02T06:03:59.325Z,1004.84
2017-04-02T06:04:39.809Z,1004.88
2017-04-02T06:05:20.286Z,1004.87
2017-04-02T06:06:00.750Z,1004.9
2017-04-02T06:06:41.253Z,1004.95
2017-04-02T06:07:21.815Z,1004.93
2017-04-02T06:08:02.227Z,1004.91
2017-04-02T06:08:42.754Z,1004.96
2017-04-02T06:09:23.239Z,1004.99
2017-04-02T06:10:03.732Z,1005.02
2017-04-02T06:10:44.283Z,1004.99
2017-04-02T06:11:24.731Z,1005.06
2017-04-02T06:12:05.246Z,1004.99
2017-04-02T06:12:45.725Z,1005.07
2017-04-02T06:13:26.268Z,1005.05
2017-04-02T06:14:06.751Z,1005.11
2017-04-02T06:14:47.223Z,1005.1
2017-04-02T06:15:27.771Z,1005.18
2017-04-02T06:16:08.204Z,1005.13
2017-04-02T06:16:48.746Z,1005.16
2017-04-02T06:17:29.184Z,1005.14
2017-04-02T06:18:09.676Z,1005.22
2017-04-02T06:18:50.274Z,1005.27
2017-04-02T06:19:30.756Z,1005.25
2017-04-02T06:20:11.270Z,1005.27
2017-04-02T06:20:51.770Z,1005.29
2017-04-02T06:21:32.268Z,1005.33
2017-04-02T06:22:12.733Z,1005.3
2017-04-02T06:22:53.229Z,1005.35
2017-04-02T06:23:33.729Z,1005.35
2017-04-02T06:24:14.256Z,1005.32
2017-04-02T06:24:54.737Z,1005.36
2017-04-02T06:25:35.252Z,1005.34
2017-04-02T06:26:15.726Z,1005.38
2017-04-02T06:26:56.242Z,1005.39
2017-04-02T06:27:36.689Z,1005.37
2017-04-02T06:28:17.172Z,1005.38
2017-04-02T06:28:57.665Z,1005.39
2017-04-02T06:29:38.180Z,1005.39
2017-04-02T06:30:18.707Z,1005.43
2017-04-02T06:30:59.318Z,1005.46
2017-04-02T06:31:39.700Z,1005.46
2017-04-02T06:32:20.168Z,1005.47
2017-04-02T06:33:00.678Z,1005.5
2017-04-02T06:33:41.159Z,1005.49
2017-04-02T06:34:21.642Z,1005.5
2017-04-02T06:35:02.155Z,1005.46
2017-04-02T06:35:42.635Z,1005.46
2017-04-02T06:36:23.149Z,1005.46
2017-04-02T06:37:03.626Z,1005.48
2017-04-02T06:37:44.120Z,1005.46
2017-04-02T06:38:24.631Z,1005.44
2017-04-02T06:39:05.085Z,1005.45
2017-04-02T06:39:45.584Z,1005.47
2017-04-02T06:40:26.140Z,1005.43
2017-04-02T06:41:06.614Z,1005.42
2017-04-02T06:41:47.089Z,1005.44
2017-04-02T06:42:27.577Z,1005.42
2017-04-02T06:43:08.084Z,1005.47
2017-04-02T06:43:48.611Z,1005.45
2017-04-02T06:44:29.069Z,1005.48
2017-04-02T06:45:09.589Z,1005.48
2017-04-02T06:45:50.068Z,1005.46
2017-04-02T06:46:30.569Z,1005.48
2017-04-02T06:47:11.035Z,1005.5
2017-04-02T06:47:51.544Z,1005.47
2017-04-02T06:48:32.020Z,1005.47
2017-04-02T06:49:12.490Z,1005.47
2017-04-02T06:49:52.991Z,1005.45
2017-04-02T06:50:33.494Z,1005.45
2017-04-02T06:51:13.961Z,1005.46
2017-04-02T06:51:54.469Z,1005.4
2017-04-02T06:52:34.937Z,1005.44
2017-04-02T06:53:15.466Z,1005.41
2017-04-02T06:53:56.025Z,1005.46
2017-04-02T06:54:36.426Z,1005.42
2017-04-02T06:55:16.946Z,1005.43
2017-04-02T06:55:57.443Z,1005.41
2017-04-02T06:56:37.930Z,1005.42
2017-04-02T06:57:18.452Z,1005.47
2017-04-02T06:57:58.931Z,1005.47
2017-04-02T06:58:39.428Z,1005.48
2017-04-02T06:59:19.937Z,1005.52
2017-04-02T07:00:00.395Z,1005.49
2017-04-02T07:00:40.962Z,1005.54
2017-04-02T07:01:21.401Z,1005.55
2017-04-02T07:02:01.886Z,1005.54
2017-04-02T07:02:42.367Z,1005.57
2017-04-02T07:03:22.848Z,1005.6
2017-04-02T07:04:03.356Z,1005.61
2017-04-02T07:04:43.827Z,1005.57
2017-04-02T07:05:24.326Z,1005.61
2017-04-02T07:06:04.840Z,1005.62
2017-04-02T07:06:45.376Z,1005.65
2017-04-02T07:07:25.867Z,1005.65
2017-04-02T07:08:06.340Z,1005.68
2017-04-02T07:08:46.911Z,1005.68
2017-04-02T07:09:27.517Z,1005.68
2017-04-02T07:10:07.981Z,1005.67
2017-04-02T07:10:48.466Z,1005.74
2017-04-02T07:11:29.002Z,1005.72
2017-04-02T07:12:09.448Z,1005.71
2017-04-02T07:12:50.310Z,1005.7
2017-04-02T07:13:30.835Z,1005.71
2017-04-02T07:14:11.343Z,1005.71
2017-04-02T07:14:51.799Z,1005.68
2017-04-02T07:15:32.280Z,1005.74
2017-04-02T07:16:12.806Z,1005.69
2017-04-02T07:16:53.286Z,1005.67
2017-04-02T07:17:33.781Z,1005.7
2017-04-02T07:18:14.262Z,1005.7
2017-04-02T07:18:54.794Z,1005.68
2017-04-02T07:19:35.278Z,1005.72
2017-04-02T07:20:15.777Z,1005.73
2017-04-02T07:20:56.285Z,1005.77
2017-04-02T07:21:36.757Z,1005.75
2017-04-02T07:22:17.286Z,1005.77
2017-04-02T07:22:57.750Z,1005.82
2017-04-02T07:23:38.278Z,1005.85
2017-04-02T07:24:18.807Z,1005.78
2017-04-02T07:24:59.292Z,1005.84
2017-04-02T07:25:39.784Z,1005.87
2017-04-02T07:26:20.259Z,1005.78
2017-04-02T07:27:00.786Z,1005.79
2017-04-02T07:27:41.267Z,1005.8
2017-04-02T07:28:21.923Z,1005.81
2017-04-02T07:29:02.428Z,1005.8
2017-04-02T07:29:42.926Z,1005.79
2017-04-02T07:30:23.448Z,1005.79
2017-04-02T07:31:03.947Z,1005.75
2017-04-02T07:31:44.454Z,1005.79
2017-04-02T07:32:24.967Z,1005.82
2017-04-02T07:33:05.950Z,1005.84
2017-04-02T07:33:46.455Z,1005.77
2017-04-02T07:34:26.950Z,1005.83
2017-04-02T07:35:07.513Z,1005.8
2017-04-02T07:35:48.101Z,1005.88
2017-04-02T07:36:28.605Z,1005.87
2017-04-02T07:37:09.151Z,1005.86
2017-04-02T07:37:49.614Z,1005.87
2017-04-02T07:38:30.117Z,1005.92
2017-04-02T07:39:10.640Z,1005.83
2017-04-02T07:39:51.194Z,1005.87
2017-04-02T07:40:31.699Z,1005.89
2017-04-02T07:41:12.191Z,1005.92
2017-04-02T07:41:52.653Z,1005.87
2017-04-02T07:42:33.282Z,1005.88
2017-04-02T07:43:13.745Z,1005.92
2017-04-02T07:43:54.210Z,1005.92
2017-04-02T07:44:34.738Z,1005.91
2017-04-02T07:45:15.223Z,1005.95
2017-04-02T07:45:55.698Z,1005.91
2017-04-02T07:46:36.222Z,1005.94
2017-04-02T07:47:16.706Z,1005.93
2017-04-02T07:47:57.331Z,1005.93
2017-04-02T07:48:37.757Z,1005.93
2017-04-02T07:49:18.271Z,1005.93
2017-04-02T07:49:58.818Z,1005.94
2017-04-02T07:50:39.341Z,1005.95
2017-04-02T07:51:19.825Z,1005.91
2017-04-02T07:52:00.361Z,1005.94
2017-04-02T07:52:40.793Z,1005.95
2017-04-02T07:53:21.337Z,1005.97
2017-04-02T07:54:01.938Z,1005.97
2017-04-02T07:54:42.422Z,1005.96
2017-04-02T07:55:22.890Z,1005.92
2017-04-02T07:56:03.379Z,1005.95
2017-04-02T07:56:43.921Z,1005.92
2017-04-02T07:57:24.365Z,1005.9
2017-04-02T07:58:04.822Z,1005.86
2017-04-02T07:58:45.322Z,1005.92
2017-04-02T07:59:25.822Z,1005.97
2017-04-02T08:00:06.324Z,1005.93
2017-04-02T08:00:46.791Z,1005.95
2017-04-02T08:01:27.322Z,1005.97
2017-04-02T08:02:07.780Z,1005.94
2017-04-02T08:02:48.290Z,1005.95
2017-04-02T08:03:28.798Z,1005.95
2017-04-02T08:04:09.268Z,1005.95
2017-04-02T08:04:49.847Z,1005.97
2017-04-02T08:05:30.411Z,1005.98
2017-04-02T08:06:11.079Z,1005.99
2017-04-02T08:06:51.546Z,1005.99
2017-04-02T08:07:32.014Z,1005.99
2017-04-02T08:08:12.527Z,1006
2017-04-02T08:08:53.022Z,1006.01
2017-04-02T08:09:33.549Z,1006.01
2017-04-02T08:10:14.071Z,1006.04
2017-04-02T08:10:54.521Z,1006.06